sensor_id;sensor_type;location;lat;lon;timestamp;P1;durP1;ratioP1;P2;durP2;ratioP2
2896;SDS011;1458;49.728;9.228;2022-12-07T00:01:55;0.43;;;0.43;;
2896;SDS011;1458;49.728;9.228;2022-12-07T00:04:23;0.40;;;0.40;;
2896;SDS011;1458;49.728;9.228;2022-12-07T00:06:51;0.40;;;0.40;;
2896;SDS011;1458;49.728;9.228;2022-12-07T00:09:19;0.47;;;0.47;;
2896;SDS011;1458;49.728;9.228;2022-12-07T00:11:48;0.40;;;0.40;;
2896;SDS011;1458;49.728;9.228;2022-12-07T00:14:17;0.60;;;0.60;;
2896;SDS011;1458;49.728;9.228;2022-12-07T00:16:45;0.50;;;0.50;;
2896;SDS011;1458;49.728;9.228;2022-12-07T00:19:15;0.40;;;0.40;;
2896;SDS011;1458;49.728;9.228;2022-12-07T00:21:44;0.60;;;0.60;;
2896;SDS011;1458;49.728;9.228;2022-12-07T00:24:11;0.40;;;0.40;;
2896;SDS011;1458;49.728;9.228;2022-12-07T00:26:39;0.70;;;0.70;;
2896;SDS011;1458;49.728;9.228;2022-12-07T00:29:10;0.60;;;0.60;;
2896;SDS011;1458;49.728;9.228;2022-12-07T00:31:42;0.50;;;0.50;;
2896;SDS011;1458;49.728;9.228;2022-12-07T00:34:12;0.40;;;0.40;;
2896;SDS011;1458;49.728;9.228;2022-12-07T00:36:41;0.57;;;0.57;;
2896;SDS011;1458;49.728;9.228;2022-12-07T00:39:10;0.40;;;0.40;;
2896;SDS011;1458;49.728;9.228;2022-12-07T00:41:39;0.40;;;0.40;;
2896;SDS011;1458;49.728;9.228;2022-12-07T00:44:06;0.40;;;0.40;;
2896;SDS011;1458;49.728;9.228;2022-12-07T00:46:33;0.40;;;0.40;;
2896;SDS011;1458;49.728;9.228;2022-12-07T00:49:01;0.60;;;0.60;;
2896;SDS011;1458;49.728;9.228;2022-12-07T00:51:28;0.40;;;0.40;;
2896;SDS011;1458;49.728;9.228;2022-12-07T00:53:57;0.40;;;0.40;;
2896;SDS011;1458;49.728;9.228;2022-12-07T00:56:25;0.50;;;0.50;;
2896;SDS011;1458;49.728;9.228;2022-12-07T00:58:54;0.40;;;0.40;;
2896;SDS011;1458;49.728;9.228;2022-12-07T01:01:24;0.60;;;0.60;;
2896;SDS011;1458;49.728;9.228;2022-12-07T01:03:54;0.50;;;0.50;;
2896;SDS011;1458;49.728;9.228;2022-12-07T01:06:22;0.40;;;0.40;;
2896;SDS011;1458;49.728;9.228;2022-12-07T01:08:51;0.50;;;0.50;;
2896;SDS011;1458;49.728;9.228;2022-12-07T01:11:21;0.40;;;0.40;;
2896;SDS011;1458;49.728;9.228;2022-12-07T01:13:51;0.50;;;0.50;;
2896;SDS011;1458;49.728;9.228;2022-12-07T01:16:21;0.50;;;0.50;;
2896;SDS011;1458;49.728;9.228;2022-12-07T01:18:51;0.50;;;0.50;;
2896;SDS011;1458;49.728;9.228;2022-12-07T01:21:21;0.63;;;0.63;;
2896;SDS011;1458;49.728;9.228;2022-12-07T01:23:51;0.50;;;0.50;;
2896;SDS011;1458;49.728;9.228;2022-12-07T01:26:19;0.40;;;0.40;;
2896;SDS011;1458;49.728;9.228;2022-12-07T01:28:49;0.40;;;0.40;;
2896;SDS011;1458;49.728;9.228;2022-12-07T01:31:20;0.40;;;0.40;;
2896;SDS011;1458;49.728;9.228;2022-12-07T01:33:50;0.40;;;0.40;;
2896;SDS011;1458;49.728;9.228;2022-12-07T01:36:20;0.40;;;0.40;;
2896;SDS011;1458;49.728;9.228;2022-12-07T01:38:50;0.50;;;0.50;;
2896;SDS011;1458;49.728;9.228;2022-12-07T01:41:23;0.40;;;0.40;;
2896;SDS011;1458;49.728;9.228;2022-12-07T01:46:52;0.60;;;0.60;;
2896;SDS011;1458;49.728;9.228;2022-12-07T01:49:26;0.47;;;0.47;;
2896;SDS011;1458;49.728;9.228;2022-12-07T01:52:01;0.60;;;0.60;;
2896;SDS011;1458;49.728;9.228;2022-12-07T01:54:44;0.50;;;0.50;;
2896;SDS011;1458;49.728;9.228;2022-12-07T01:57:14;0.50;;;0.50;;
2896;SDS011;1458;49.728;9.228;2022-12-07T01:59:43;0.40;;;0.40;;
2896;SDS011;1458;49.728;9.228;2022-12-07T02:02:17;0.40;;;0.40;;
2896;SDS011;1458;49.728;9.228;2022-12-07T02:04:50;0.50;;;0.50;;
2896;SDS011;1458;49.728;9.228;2022-12-07T02:07:18;0.50;;;0.50;;
2896;SDS011;1458;49.728;9.228;2022-12-07T02:09:47;0.40;;;0.40;;
2896;SDS011;1458;49.728;9.228;2022-12-07T02:12:15;0.40;;;0.40;;
2896;SDS011;1458;49.728;9.228;2022-12-07T02:14:43;0.40;;;0.40;;
2896;SDS011;1458;49.728;9.228;2022-12-07T02:17:12;0.50;;;0.50;;
2896;SDS011;1458;49.728;9.228;2022-12-07T02:20:00;0.40;;;0.40;;
2896;SDS011;1458;49.728;9.228;2022-12-07T02:22:54;0.40;;;0.40;;
2896;SDS011;1458;49.728;9.228;2022-12-07T02:26:19;0.40;;;0.40;;
2896;SDS011;1458;49.728;9.228;2022-12-07T02:29:22;0.40;;;0.40;;
2896;SDS011;1458;49.728;9.228;2022-12-07T02:31:55;0.40;;;0.40;;
2896;SDS011;1458;49.728;9.228;2022-12-07T02:34:32;0.50;;;0.50;;
2896;SDS011;1458;49.728;9.228;2022-12-07T02:37:09;0.50;;;0.50;;
2896;SDS011;1458;49.728;9.228;2022-12-07T02:39:47;0.40;;;0.40;;
2896;SDS011;1458;49.728;9.228;2022-12-07T02:42:28;0.40;;;0.40;;
2896;SDS011;1458;49.728;9.228;2022-12-07T02:45:04;0.40;;;0.40;;
2896;SDS011;1458;49.728;9.228;2022-12-07T02:47:33;0.40;;;0.40;;
2896;SDS011;1458;49.728;9.228;2022-12-07T02:50:03;0.60;;;0.60;;
2896;SDS011;1458;49.728;9.228;2022-12-07T02:52:33;0.50;;;0.50;;
2896;SDS011;1458;49.728;9.228;2022-12-07T02:55:00;0.40;;;0.40;;
2896;SDS011;1458;49.728;9.228;2022-12-07T03:00:26;0.40;;;0.40;;
2896;SDS011;1458;49.728;9.228;2022-12-07T03:02:54;0.40;;;0.40;;
2896;SDS011;1458;49.728;9.228;2022-12-07T03:05:32;0.40;;;0.40;;
2896;SDS011;1458;49.728;9.228;2022-12-07T03:08:13;0.50;;;0.50;;
2896;SDS011;1458;49.728;9.228;2022-12-07T03:10:48;0.50;;;0.50;;
2896;SDS011;1458;49.728;9.228;2022-12-07T03:13:24;0.40;;;0.40;;
2896;SDS011;1458;49.728;9.228;2022-12-07T03:16:00;0.40;;;0.40;;
2896;SDS011;1458;49.728;9.228;2022-12-07T03:18:34;0.40;;;0.40;;
2896;SDS011;1458;49.728;9.228;2022-12-07T03:21:06;0.50;;;0.50;;
2896;SDS011;1458;49.728;9.228;2022-12-07T03:23:40;0.50;;;0.50;;
2896;SDS011;1458;49.728;9.228;2022-12-07T03:26:11;0.50;;;0.50;;
2896;SDS011;1458;49.728;9.228;2022-12-07T03:28:42;0.50;;;0.50;;
2896;SDS011;1458;49.728;9.228;2022-12-07T03:31:17;0.50;;;0.50;;
2896;SDS011;1458;49.728;9.228;2022-12-07T03:33:49;0.40;;;0.40;;
2896;SDS011;1458;49.728;9.228;2022-12-07T03:36:26;0.40;;;0.40;;
2896;SDS011;1458;49.728;9.228;2022-12-07T03:39:02;0.50;;;0.50;;
2896;SDS011;1458;49.728;9.228;2022-12-07T03:41:40;0.50;;;0.50;;
2896;SDS011;1458;49.728;9.228;2022-12-07T03:44:07;0.50;;;0.50;;
2896;SDS011;1458;49.728;9.228;2022-12-07T03:46:37;0.50;;;0.50;;
2896;SDS011;1458;49.728;9.228;2022-12-07T03:49:11;0.40;;;0.40;;
2896;SDS011;1458;49.728;9.228;2022-12-07T03:51:50;0.40;;;0.40;;
2896;SDS011;1458;49.728;9.228;2022-12-07T03:54:24;0.40;;;0.40;;
2896;SDS011;1458;49.728;9.228;2022-12-07T03:56:56;0.50;;;0.50;;
2896;SDS011;1458;49.728;9.228;2022-12-07T03:59:25;0.50;;;0.50;;
2896;SDS011;1458;49.728;9.228;2022-12-07T04:01:54;0.50;;;0.50;;
2896;SDS011;1458;49.728;9.228;2022-12-07T04:04:24;0.50;;;0.50;;
2896;SDS011;1458;49.728;9.228;2022-12-07T04:06:51;0.53;;;0.53;;
2896;SDS011;1458;49.728;9.228;2022-12-07T04:09:19;0.50;;;0.50;;
2896;SDS011;1458;49.728;9.228;2022-12-07T04:11:48;0.40;;;0.40;;
2896;SDS011;1458;49.728;9.228;2022-12-07T04:14:15;0.40;;;0.40;;
2896;SDS011;1458;49.728;9.228;2022-12-07T04:16:45;0.50;;;0.50;;
2896;SDS011;1458;49.728;9.228;2022-12-07T04:19:15;0.50;;;0.50;;
2896;SDS011;1458;49.728;9.228;2022-12-07T04:21:43;0.47;;;0.47;;
2896;SDS011;1458;49.728;9.228;2022-12-07T04:24:11;0.50;;;0.50;;
2896;SDS011;1458;49.728;9.228;2022-12-07T04:26:41;0.50;;;0.50;;
2896;SDS011;1458;49.728;9.228;2022-12-07T04:29:09;0.50;;;0.50;;
2896;SDS011;1458;49.728;9.228;2022-12-07T04:31:37;0.50;;;0.50;;
2896;SDS011;1458;49.728;9.228;2022-12-07T04:34:05;0.50;;;0.50;;
2896;SDS011;1458;49.728;9.228;2022-12-07T04:36:34;0.50;;;0.50;;
2896;SDS011;1458;49.728;9.228;2022-12-07T04:39:02;0.50;;;0.50;;
2896;SDS011;1458;49.728;9.228;2022-12-07T04:41:30;0.40;;;0.40;;
2896;SDS011;1458;49.728;9.228;2022-12-07T04:43:58;0.47;;;0.47;;
2896;SDS011;1458;49.728;9.228;2022-12-07T04:46:29;0.50;;;0.50;;
2896;SDS011;1458;49.728;9.228;2022-12-07T04:48:58;0.40;;;0.40;;
2896;SDS011;1458;49.728;9.228;2022-12-07T04:51:26;0.50;;;0.50;;
2896;SDS011;1458;49.728;9.228;2022-12-07T04:53:56;0.50;;;0.50;;
2896;SDS011;1458;49.728;9.228;2022-12-07T04:56:24;0.50;;;0.50;;
2896;SDS011;1458;49.728;9.228;2022-12-07T04:58:52;0.40;;;0.40;;
2896;SDS011;1458;49.728;9.228;2022-12-07T05:01:20;0.50;;;0.50;;
2896;SDS011;1458;49.728;9.228;2022-12-07T05:03:49;0.50;;;0.50;;
2896;SDS011;1458;49.728;9.228;2022-12-07T05:06:16;0.40;;;0.40;;
2896;SDS011;1458;49.728;9.228;2022-12-07T05:08:44;0.50;;;0.50;;
2896;SDS011;1458;49.728;9.228;2022-12-07T05:11:13;0.40;;;0.40;;
2896;SDS011;1458;49.728;9.228;2022-12-07T05:14:01;0.50;;;0.50;;
2896;SDS011;1458;49.728;9.228;2022-12-07T05:16:29;0.50;;;0.50;;
2896;SDS011;1458;49.728;9.228;2022-12-07T05:18:57;0.43;;;0.43;;
2896;SDS011;1458;49.728;9.228;2022-12-07T05:21:24;0.40;;;0.40;;
2896;SDS011;1458;49.728;9.228;2022-12-07T05:23:52;0.40;;;0.40;;
2896;SDS011;1458;49.728;9.228;2022-12-07T05:26:20;0.40;;;0.40;;
2896;SDS011;1458;49.728;9.228;2022-12-07T05:28:49;0.40;;;0.40;;
2896;SDS011;1458;49.728;9.228;2022-12-07T05:31:18;0.40;;;0.40;;
2896;SDS011;1458;49.728;9.228;2022-12-07T05:33:45;0.40;;;0.40;;
2896;SDS011;1458;49.728;9.228;2022-12-07T05:36:13;0.50;;;0.50;;
2896;SDS011;1458;49.728;9.228;2022-12-07T05:38:40;0.40;;;0.40;;
2896;SDS011;1458;49.728;9.228;2022-12-07T05:41:08;0.40;;;0.40;;
2896;SDS011;1458;49.728;9.228;2022-12-07T05:44:00;0.40;;;0.40;;
2896;SDS011;1458;49.728;9.228;2022-12-07T05:46:27;0.40;;;0.40;;
2896;SDS011;1458;49.728;9.228;2022-12-07T05:48:55;0.40;;;0.40;;
2896;SDS011;1458;49.728;9.228;2022-12-07T05:51:22;0.60;;;0.60;;
2896;SDS011;1458;49.728;9.228;2022-12-07T05:53:49;0.40;;;0.40;;
2896;SDS011;1458;49.728;9.228;2022-12-07T05:56:17;0.40;;;0.40;;
2896;SDS011;1458;49.728;9.228;2022-12-07T05:58:44;0.40;;;0.40;;
2896;SDS011;1458;49.728;9.228;2022-12-07T06:01:30;0.40;;;0.40;;
2896;SDS011;1458;49.728;9.228;2022-12-07T06:03:58;0.40;;;0.40;;
2896;SDS011;1458;49.728;9.228;2022-12-07T06:06:25;0.40;;;0.40;;
2896;SDS011;1458;49.728;9.228;2022-12-07T06:08:52;0.40;;;0.40;;
2896;SDS011;1458;49.728;9.228;2022-12-07T06:11:20;0.40;;;0.40;;
2896;SDS011;1458;49.728;9.228;2022-12-07T06:14:05;0.50;;;0.50;;
2896;SDS011;1458;49.728;9.228;2022-12-07T06:16:34;0.40;;;0.40;;
2896;SDS011;1458;49.728;9.228;2022-12-07T06:19:02;0.40;;;0.40;;
2896;SDS011;1458;49.728;9.228;2022-12-07T06:21:29;0.40;;;0.40;;
2896;SDS011;1458;49.728;9.228;2022-12-07T06:23:56;0.40;;;0.40;;
2896;SDS011;1458;49.728;9.228;2022-12-07T06:26:24;0.40;;;0.40;;
2896;SDS011;1458;49.728;9.228;2022-12-07T06:28:51;0.40;;;0.40;;
2896;SDS011;1458;49.728;9.228;2022-12-07T06:31:18;0.40;;;0.40;;
2896;SDS011;1458;49.728;9.228;2022-12-07T06:33:47;0.50;;;0.50;;
2896;SDS011;1458;49.728;9.228;2022-12-07T06:36:14;0.43;;;0.43;;
2896;SDS011;1458;49.728;9.228;2022-12-07T06:38:42;0.40;;;0.40;;
2896;SDS011;1458;49.728;9.228;2022-12-07T06:41:09;0.50;;;0.50;;
2896;SDS011;1458;49.728;9.228;2022-12-07T06:43:36;0.40;;;0.40;;
2896;SDS011;1458;49.728;9.228;2022-12-07T06:46:04;0.40;;;0.40;;
2896;SDS011;1458;49.728;9.228;2022-12-07T06:48:31;0.40;;;0.40;;
2896;SDS011;1458;49.728;9.228;2022-12-07T06:51:00;0.40;;;0.40;;
2896;SDS011;1458;49.728;9.228;2022-12-07T06:53:27;0.40;;;0.40;;
2896;SDS011;1458;49.728;9.228;2022-12-07T06:55:54;0.40;;;0.40;;
2896;SDS011;1458;49.728;9.228;2022-12-07T06:58:22;0.40;;;0.40;;
2896;SDS011;1458;49.728;9.228;2022-12-07T07:00:49;0.40;;;0.40;;
2896;SDS011;1458;49.728;9.228;2022-12-07T07:03:17;0.40;;;0.40;;
2896;SDS011;1458;49.728;9.228;2022-12-07T07:05:44;0.40;;;0.40;;
2896;SDS011;1458;49.728;9.228;2022-12-07T07:08:13;0.40;;;0.40;;
2896;SDS011;1458;49.728;9.228;2022-12-07T07:10:41;0.40;;;0.40;;
2896;SDS011;1458;49.728;9.228;2022-12-07T07:13:08;0.40;;;0.40;;
2896;SDS011;1458;49.728;9.228;2022-12-07T07:15:37;0.40;;;0.40;;
2896;SDS011;1458;49.728;9.228;2022-12-07T07:18:05;0.40;;;0.40;;
2896;SDS011;1458;49.728;9.228;2022-12-07T07:20:32;0.40;;;0.40;;
2896;SDS011;1458;49.728;9.228;2022-12-07T07:22:59;0.40;;;0.40;;
2896;SDS011;1458;49.728;9.228;2022-12-07T07:25:28;0.40;;;0.40;;
2896;SDS011;1458;49.728;9.228;2022-12-07T07:27:56;0.40;;;0.40;;
2896;SDS011;1458;49.728;9.228;2022-12-07T07:30:24;0.40;;;0.40;;
2896;SDS011;1458;49.728;9.228;2022-12-07T07:32:51;0.50;;;0.50;;
2896;SDS011;1458;49.728;9.228;2022-12-07T07:35:23;0.40;;;0.40;;
2896;SDS011;1458;49.728;9.228;2022-12-07T07:37:50;0.40;;;0.40;;
2896;SDS011;1458;49.728;9.228;2022-12-07T07:40:18;0.40;;;0.40;;
2896;SDS011;1458;49.728;9.228;2022-12-07T07:42:48;0.40;;;0.40;;
2896;SDS011;1458;49.728;9.228;2022-12-07T07:45:16;0.40;;;0.40;;
2896;SDS011;1458;49.728;9.228;2022-12-07T07:47:43;0.40;;;0.40;;
2896;SDS011;1458;49.728;9.228;2022-12-07T07:50:11;0.40;;;0.40;;
2896;SDS011;1458;49.728;9.228;2022-12-07T07:52:38;0.40;;;0.40;;
2896;SDS011;1458;49.728;9.228;2022-12-07T07:55:06;0.40;;;0.40;;
2896;SDS011;1458;49.728;9.228;2022-12-07T07:57:34;0.50;;;0.50;;
2896;SDS011;1458;49.728;9.228;2022-12-07T08:00:04;0.40;;;0.40;;
2896;SDS011;1458;49.728;9.228;2022-12-07T08:02:40;0.47;;;0.47;;
2896;SDS011;1458;49.728;9.228;2022-12-07T08:05:09;0.50;;;0.50;;
2896;SDS011;1458;49.728;9.228;2022-12-07T08:07:37;0.50;;;0.50;;
2896;SDS011;1458;49.728;9.228;2022-12-07T08:10:06;0.40;;;0.40;;
2896;SDS011;1458;49.728;9.228;2022-12-07T08:12:37;0.40;;;0.40;;
2896;SDS011;1458;49.728;9.228;2022-12-07T08:15:27;0.40;;;0.40;;
2896;SDS011;1458;49.728;9.228;2022-12-07T08:17:57;0.40;;;0.40;;
2896;SDS011;1458;49.728;9.228;2022-12-07T08:20:24;0.40;;;0.40;;
2896;SDS011;1458;49.728;9.228;2022-12-07T08:22:52;0.40;;;0.40;;
2896;SDS011;1458;49.728;9.228;2022-12-07T08:25:19;0.40;;;0.40;;
2896;SDS011;1458;49.728;9.228;2022-12-07T08:27:47;0.40;;;0.40;;
2896;SDS011;1458;49.728;9.228;2022-12-07T08:30:15;0.50;;;0.50;;
2896;SDS011;1458;49.728;9.228;2022-12-07T08:32:45;0.40;;;0.40;;
2896;SDS011;1458;49.728;9.228;2022-12-07T08:35:13;0.50;;;0.50;;
2896;SDS011;1458;49.728;9.228;2022-12-07T08:37:41;0.40;;;0.40;;
2896;SDS011;1458;49.728;9.228;2022-12-07T08:40:09;0.50;;;0.50;;
2896;SDS011;1458;49.728;9.228;2022-12-07T08:42:40;0.40;;;0.40;;
2896;SDS011;1458;49.728;9.228;2022-12-07T08:45:10;0.40;;;0.40;;
2896;SDS011;1458;49.728;9.228;2022-12-07T08:47:40;0.50;;;0.50;;
2896;SDS011;1458;49.728;9.228;2022-12-07T08:50:13;0.43;;;0.43;;
2896;SDS011;1458;49.728;9.228;2022-12-07T08:52:41;0.40;;;0.40;;
2896;SDS011;1458;49.728;9.228;2022-12-07T08:55:09;0.40;;;0.40;;
2896;SDS011;1458;49.728;9.228;2022-12-07T08:57:38;0.40;;;0.40;;
2896;SDS011;1458;49.728;9.228;2022-12-07T09:00:08;0.57;;;0.57;;
2896;SDS011;1458;49.728;9.228;2022-12-07T09:02:37;0.40;;;0.40;;
2896;SDS011;1458;49.728;9.228;2022-12-07T09:05:06;0.40;;;0.40;;
2896;SDS011;1458;49.728;9.228;2022-12-07T09:07:34;0.40;;;0.40;;
2896;SDS011;1458;49.728;9.228;2022-12-07T09:10:03;0.50;;;0.50;;
2896;SDS011;1458;49.728;9.228;2022-12-07T09:12:32;0.40;;;0.40;;
2896;SDS011;1458;49.728;9.228;2022-12-07T09:14:59;0.40;;;0.40;;
2896;SDS011;1458;49.728;9.228;2022-12-07T09:17:26;0.40;;;0.40;;
2896;SDS011;1458;49.728;9.228;2022-12-07T09:19:54;0.40;;;0.40;;
2896;SDS011;1458;49.728;9.228;2022-12-07T09:22:22;0.40;;;0.40;;
2896;SDS011;1458;49.728;9.228;2022-12-07T09:24:50;0.40;;;0.40;;
2896;SDS011;1458;49.728;9.228;2022-12-07T09:27:17;0.40;;;0.40;;
2896;SDS011;1458;49.728;9.228;2022-12-07T09:29:44;0.40;;;0.40;;
2896;SDS011;1458;49.728;9.228;2022-12-07T09:32:12;0.40;;;0.40;;
2896;SDS011;1458;49.728;9.228;2022-12-07T09:34:39;0.60;;;0.60;;
2896;SDS011;1458;49.728;9.228;2022-12-07T09:37:06;0.50;;;0.50;;
2896;SDS011;1458;49.728;9.228;2022-12-07T09:39:37;0.40;;;0.40;;
2896;SDS011;1458;49.728;9.228;2022-12-07T09:42:05;0.60;;;0.60;;
2896;SDS011;1458;49.728;9.228;2022-12-07T09:44:36;0.50;;;0.50;;
2896;SDS011;1458;49.728;9.228;2022-12-07T09:47:07;0.50;;;0.50;;
2896;SDS011;1458;49.728;9.228;2022-12-07T09:49:36;0.50;;;0.50;;
2896;SDS011;1458;49.728;9.228;2022-12-07T09:52:15;0.40;;;0.40;;
2896;SDS011;1458;49.728;9.228;2022-12-07T09:54:48;0.50;;;0.50;;
2896;SDS011;1458;49.728;9.228;2022-12-07T09:57:17;0.57;;;0.57;;
2896;SDS011;1458;49.728;9.228;2022-12-07T09:59:44;0.50;;;0.50;;
2896;SDS011;1458;49.728;9.228;2022-12-07T10:02:34;0.50;;;0.50;;
2896;SDS011;1458;49.728;9.228;2022-12-07T10:05:05;0.50;;;0.50;;
2896;SDS011;1458;49.728;9.228;2022-12-07T10:07:34;0.50;;;0.50;;
2896;SDS011;1458;49.728;9.228;2022-12-07T10:10:04;0.60;;;0.60;;
2896;SDS011;1458;49.728;9.228;2022-12-07T10:12:44;0.50;;;0.50;;
2896;SDS011;1458;49.728;9.228;2022-12-07T10:15:21;0.60;;;0.60;;
2896;SDS011;1458;49.728;9.228;2022-12-07T10:17:50;0.60;;;0.60;;
2896;SDS011;1458;49.728;9.228;2022-12-07T10:20:20;0.60;;;0.60;;
2896;SDS011;1458;49.728;9.228;2022-12-07T10:22:54;0.50;;;0.50;;
2896;SDS011;1458;49.728;9.228;2022-12-07T10:25:27;0.60;;;0.60;;
2896;SDS011;1458;49.728;9.228;2022-12-07T10:27:59;0.70;;;0.70;;
2896;SDS011;1458;49.728;9.228;2022-12-07T10:30:46;0.70;;;0.70;;
2896;SDS011;1458;49.728;9.228;2022-12-07T10:33:28;0.80;;;0.80;;
2896;SDS011;1458;49.728;9.228;2022-12-07T10:36:00;0.70;;;0.70;;
2896;SDS011;1458;49.728;9.228;2022-12-07T10:38:44;0.70;;;0.70;;
2896;SDS011;1458;49.728;9.228;2022-12-07T10:41:15;0.70;;;0.70;;
2896;SDS011;1458;49.728;9.228;2022-12-07T10:43:46;0.70;;;0.70;;
2896;SDS011;1458;49.728;9.228;2022-12-07T10:52:28;0.60;;;0.60;;
2896;SDS011;1458;49.728;9.228;2022-12-07T10:55:15;0.70;;;0.70;;
2896;SDS011;1458;49.728;9.228;2022-12-07T10:57:56;0.70;;;0.70;;
2896;SDS011;1458;49.728;9.228;2022-12-07T11:00:44;0.60;;;0.60;;
2896;SDS011;1458;49.728;9.228;2022-12-07T11:03:23;0.70;;;0.70;;
2896;SDS011;1458;49.728;9.228;2022-12-07T11:06:10;0.70;;;0.70;;
2896;SDS011;1458;49.728;9.228;2022-12-07T11:08:50;0.80;;;0.80;;
2896;SDS011;1458;49.728;9.228;2022-12-07T11:11:31;0.80;;;0.80;;
2896;SDS011;1458;49.728;9.228;2022-12-07T11:14:08;0.73;;;0.73;;
2896;SDS011;1458;49.728;9.228;2022-12-07T11:16:54;0.70;;;0.70;;
2896;SDS011;1458;49.728;9.228;2022-12-07T11:19:32;0.80;;;0.80;;
2896;SDS011;1458;49.728;9.228;2022-12-07T11:22:17;0.70;;;0.70;;
2896;SDS011;1458;49.728;9.228;2022-12-07T11:24:54;0.70;;;0.70;;
2896;SDS011;1458;49.728;9.228;2022-12-07T11:27:30;0.60;;;0.60;;
2896;SDS011;1458;49.728;9.228;2022-12-07T11:30:11;0.60;;;0.60;;
2896;SDS011;1458;49.728;9.228;2022-12-07T11:32:50;0.80;;;0.80;;
2896;SDS011;1458;49.728;9.228;2022-12-07T11:35:31;0.73;;;0.73;;
2896;SDS011;1458;49.728;9.228;2022-12-07T11:38:08;0.70;;;0.70;;
2896;SDS011;1458;49.728;9.228;2022-12-07T11:40:40;0.60;;;0.60;;
2896;SDS011;1458;49.728;9.228;2022-12-07T11:43:13;0.60;;;0.60;;
2896;SDS011;1458;49.728;9.228;2022-12-07T11:45:52;0.60;;;0.60;;
2896;SDS011;1458;49.728;9.228;2022-12-07T11:48:24;0.70;;;0.70;;
2896;SDS011;1458;49.728;9.228;2022-12-07T11:51:00;0.60;;;0.60;;
2896;SDS011;1458;49.728;9.228;2022-12-07T11:53:31;0.60;;;0.60;;
2896;SDS011;1458;49.728;9.228;2022-12-07T11:56:06;0.60;;;0.60;;
2896;SDS011;1458;49.728;9.228;2022-12-07T11:58:42;0.60;;;0.60;;
2896;SDS011;1458;49.728;9.228;2022-12-07T12:01:21;0.60;;;0.60;;
2896;SDS011;1458;49.728;9.228;2022-12-07T12:04:01;0.50;;;0.50;;
2896;SDS011;1458;49.728;9.228;2022-12-07T12:06:40;0.57;;;0.57;;
2896;SDS011;1458;49.728;9.228;2022-12-07T12:09:11;0.60;;;0.60;;
2896;SDS011;1458;49.728;9.228;2022-12-07T12:11:48;0.60;;;0.60;;
2896;SDS011;1458;49.728;9.228;2022-12-07T12:14:48;0.60;;;0.60;;
2896;SDS011;1458;49.728;9.228;2022-12-07T12:17:58;0.60;;;0.60;;
2896;SDS011;1458;49.728;9.228;2022-12-07T12:20:43;0.60;;;0.60;;
2896;SDS011;1458;49.728;9.228;2022-12-07T12:23:16;0.80;;;0.80;;
2896;SDS011;1458;49.728;9.228;2022-12-07T12:25:46;0.60;;;0.60;;
2896;SDS011;1458;49.728;9.228;2022-12-07T12:28:20;0.60;;;0.60;;
2896;SDS011;1458;49.728;9.228;2022-12-07T12:31:13;0.60;;;0.60;;
2896;SDS011;1458;49.728;9.228;2022-12-07T12:33:45;0.60;;;0.60;;
2896;SDS011;1458;49.728;9.228;2022-12-07T12:36:23;0.60;;;0.60;;
2896;SDS011;1458;49.728;9.228;2022-12-07T12:39:07;0.60;;;0.60;;
2896;SDS011;1458;49.728;9.228;2022-12-07T12:41:58;0.70;;;0.70;;
2896;SDS011;1458;49.728;9.228;2022-12-07T12:54:10;0.80;;;0.80;;
2896;SDS011;1458;49.728;9.228;2022-12-07T12:56:42;0.60;;;0.60;;
2896;SDS011;1458;49.728;9.228;2022-12-07T12:59:26;0.60;;;0.60;;
2896;SDS011;1458;49.728;9.228;2022-12-07T13:02:06;0.70;;;0.70;;
2896;SDS011;1458;49.728;9.228;2022-12-07T13:10:30;0.77;;;0.77;;
2896;SDS011;1458;49.728;9.228;2022-12-07T13:13:29;0.60;;;0.60;;
2896;SDS011;1458;49.728;9.228;2022-12-07T13:25:29;0.60;;;0.60;;
2896;SDS011;1458;49.728;9.228;2022-12-07T13:28:09;0.60;;;0.60;;
2896;SDS011;1458;49.728;9.228;2022-12-07T13:30:43;0.70;;;0.70;;
2896;SDS011;1458;49.728;9.228;2022-12-07T13:33:20;0.67;;;0.67;;
2896;SDS011;1458;49.728;9.228;2022-12-07T13:35:48;0.60;;;0.60;;
2896;SDS011;1458;49.728;9.228;2022-12-07T13:38:27;0.60;;;0.60;;
2896;SDS011;1458;49.728;9.228;2022-12-07T13:41:01;0.70;;;0.70;;
2896;SDS011;1458;49.728;9.228;2022-12-07T13:43:41;0.60;;;0.60;;
2896;SDS011;1458;49.728;9.228;2022-12-07T13:46:11;0.70;;;0.70;;
2896;SDS011;1458;49.728;9.228;2022-12-07T13:48:44;0.70;;;0.70;;
2896;SDS011;1458;49.728;9.228;2022-12-07T13:51:17;0.63;;;0.63;;
2896;SDS011;1458;49.728;9.228;2022-12-07T13:53:49;0.70;;;0.70;;
2896;SDS011;1458;49.728;9.228;2022-12-07T13:56:20;0.70;;;0.70;;
2896;SDS011;1458;49.728;9.228;2022-12-07T13:58:51;0.70;;;0.70;;
2896;SDS011;1458;49.728;9.228;2022-12-07T14:01:19;0.70;;;0.70;;
2896;SDS011;1458;49.728;9.228;2022-12-07T14:03:47;0.80;;;0.80;;
2896;SDS011;1458;49.728;9.228;2022-12-07T14:06:19;0.77;;;0.77;;
2896;SDS011;1458;49.728;9.228;2022-12-07T14:09:08;0.70;;;0.70;;
2896;SDS011;1458;49.728;9.228;2022-12-07T14:11:44;0.70;;;0.70;;
2896;SDS011;1458;49.728;9.228;2022-12-07T14:14:13;0.80;;;0.80;;
2896;SDS011;1458;49.728;9.228;2022-12-07T14:16:54;1.00;;;1.00;;
2896;SDS011;1458;49.728;9.228;2022-12-07T14:19:41;0.80;;;0.80;;
2896;SDS011;1458;49.728;9.228;2022-12-07T14:22:24;0.80;;;0.80;;
2896;SDS011;1458;49.728;9.228;2022-12-07T14:25:00;1.07;;;1.07;;
2896;SDS011;1458;49.728;9.228;2022-12-07T14:27:47;1.00;;;1.00;;
2896;SDS011;1458;49.728;9.228;2022-12-07T14:30:20;0.90;;;0.90;;
2896;SDS011;1458;49.728;9.228;2022-12-07T14:32:50;0.80;;;0.80;;
2896;SDS011;1458;49.728;9.228;2022-12-07T14:35:21;0.80;;;0.80;;
2896;SDS011;1458;49.728;9.228;2022-12-07T14:37:49;0.80;;;0.80;;
2896;SDS011;1458;49.728;9.228;2022-12-07T14:40:19;0.70;;;0.70;;
2896;SDS011;1458;49.728;9.228;2022-12-07T14:42:49;0.80;;;0.80;;
2896;SDS011;1458;49.728;9.228;2022-12-07T14:45:20;0.70;;;0.70;;
2896;SDS011;1458;49.728;9.228;2022-12-07T14:47:49;0.70;;;0.70;;
2896;SDS011;1458;49.728;9.228;2022-12-07T14:50:17;0.70;;;0.70;;
2896;SDS011;1458;49.728;9.228;2022-12-07T14:52:47;0.70;;;0.70;;
2896;SDS011;1458;49.728;9.228;2022-12-07T14:55:22;0.67;;;0.67;;
2896;SDS011;1458;49.728;9.228;2022-12-07T14:57:51;0.60;;;0.60;;
2896;SDS011;1458;49.728;9.228;2022-12-07T15:00:20;0.77;;;0.77;;
2896;SDS011;1458;49.728;9.228;2022-12-07T15:02:49;0.60;;;0.60;;
2896;SDS011;1458;49.728;9.228;2022-12-07T15:05:17;0.57;;;0.57;;
2896;SDS011;1458;49.728;9.228;2022-12-07T15:07:45;0.50;;;0.50;;
2896;SDS011;1458;49.728;9.228;2022-12-07T15:10:14;0.60;;;0.60;;
2896;SDS011;1458;49.728;9.228;2022-12-07T15:12:46;0.50;;;0.50;;
2896;SDS011;1458;49.728;9.228;2022-12-07T15:15:13;0.67;;;0.67;;
2896;SDS011;1458;49.728;9.228;2022-12-07T15:17:42;0.60;;;0.60;;
2896;SDS011;1458;49.728;9.228;2022-12-07T15:20:10;0.60;;;0.60;;
2896;SDS011;1458;49.728;9.228;2022-12-07T15:22:42;0.50;;;0.50;;
2896;SDS011;1458;49.728;9.228;2022-12-07T15:25:12;0.50;;;0.50;;
2896;SDS011;1458;49.728;9.228;2022-12-07T15:27:40;0.50;;;0.50;;
2896;SDS011;1458;49.728;9.228;2022-12-07T15:30:09;0.50;;;0.50;;
2896;SDS011;1458;49.728;9.228;2022-12-07T15:32:37;0.60;;;0.60;;
2896;SDS011;1458;49.728;9.228;2022-12-07T15:35:05;0.50;;;0.50;;
2896;SDS011;1458;49.728;9.228;2022-12-07T15:37:33;0.70;;;0.70;;
2896;SDS011;1458;49.728;9.228;2022-12-07T15:40:00;0.67;;;0.67;;
2896;SDS011;1458;49.728;9.228;2022-12-07T15:42:28;0.50;;;0.50;;
2896;SDS011;1458;49.728;9.228;2022-12-07T15:44:55;0.60;;;0.60;;
2896;SDS011;1458;49.728;9.228;2022-12-07T15:47:33;0.50;;;0.50;;
2896;SDS011;1458;49.728;9.228;2022-12-07T15:50:02;0.50;;;0.50;;
2896;SDS011;1458;49.728;9.228;2022-12-07T15:52:31;0.50;;;0.50;;
2896;SDS011;1458;49.728;9.228;2022-12-07T15:54:59;0.40;;;0.40;;
2896;SDS011;1458;49.728;9.228;2022-12-07T15:57:28;0.40;;;0.40;;
2896;SDS011;1458;49.728;9.228;2022-12-07T15:59:55;0.40;;;0.40;;
2896;SDS011;1458;49.728;9.228;2022-12-07T16:02:23;0.50;;;0.50;;
2896;SDS011;1458;49.728;9.228;2022-12-07T16:04:52;0.40;;;0.40;;
2896;SDS011;1458;49.728;9.228;2022-12-07T16:07:19;0.40;;;0.40;;
2896;SDS011;1458;49.728;9.228;2022-12-07T16:09:47;0.47;;;0.47;;
2896;SDS011;1458;49.728;9.228;2022-12-07T16:12:15;0.60;;;0.60;;
2896;SDS011;1458;49.728;9.228;2022-12-07T16:14:43;0.40;;;0.40;;
2896;SDS011;1458;49.728;9.228;2022-12-07T16:17:10;0.40;;;0.40;;
2896;SDS011;1458;49.728;9.228;2022-12-07T16:19:38;0.40;;;0.40;;
2896;SDS011;1458;49.728;9.228;2022-12-07T16:22:07;0.40;;;0.40;;